x

Ne Bahamas - 350 Nm Ene Of Nassau, Bahamas (41047) Wave Buoy

9:50pm - Fri 19th Sep 2014 All times are UTC.

  • Sig Wave height 2.3ft
  • Swell Direction
  • Peak Period 8s
  • Average Period 6s
  • Wind
    4mph, 7mph gusts
  • Sea Temp 83°f
  • Air Temp 80°f
  • Sea Pressure 1015.6mb

More Historic Weather Station data

Upgrade to MSW Pro to gain access to the past 30 days of data for over 8000 Wavebouys and Weather Stations around the globe.

Join Pro

Comparision Forecast

View Surf forecast
   
Fri 09/19 9:50pm 2.5ft 8s 6s 4 7 mph 1015.6mb 83f 80f
8:50pm 2.5ft 9s 6s 2 4 mph 1015.6mb 83f 79f
7:50pm 2.5ft 8s 6s 7 9 mph 1015mb 83f 78f
6:50pm 2.5ft 11s 5s 11
mph
1015.4mb 83f 77f
5:50pm 2.5ft 9s 5s 4 7 mph 1016mb 83f 76f
4:50pm 2.5ft 6s 6s 7 9 mph 1016.6mb 83f 82f
2:50pm 2.5ft 8s 6s 7
mph
1017.6mb 83f 81f
1:50pm 3ft 8s 6s 4 7 mph 1017.4mb 83f 82f
12:50pm 3ft 7s 6s 4 7 mph 1016.8mb 83f 82f
11:50am 3ft 6s 5s 4
mph
1016.4mb 83f 81f
10:50am 3.5ft 6s 6s 2 4 mph 1014.9mb 83f 80f
9:50am 3.5ft 6s 6s 7
mph
1014.2mb 83f 79f
8:50am 3.5ft 7s 5s 9 11 mph 1014.1mb 83f 80f
7:50am 3.5ft 7s 5s 13 16 mph 1014.2mb 83f 78f
6:50am 3.5ft 7s 6s 9 11 mph 1014.4mb 83f 79f
5:50am 4.5ft 7s 6s 4
mph
1014.8mb 83f 80f
4:50am 4.5ft 7s 6s 4 7 mph 1015mb 83f 79f
3:50am 3.5ft 7s 5s 9 13 mph 1015.1mb 83f 80f
2:50am 3.5ft 7s 5s 7
mph
1015.2mb 83f 82f
1:50am 3.5ft 7s 5s 7 9 mph 1015.1mb 83f 82f
12:50am 4ft 6s 5s 7
mph
1014.7mb 83f 82f
Thu 09/18 11:50pm 4ft 6s 6s 7 9 mph 1013.9mb 83f 82f
10:50pm 3.5ft 10s 5s 7
mph
1013.4mb 83f 82f
9:50pm 4ft 6s 5s 9 11 mph 1013.6mb 83f 81f
8:50pm 4ft 5s 5s 9 11 mph 1013.7mb 83f 81f
7:50pm 4ft 6s 5s 9 11 mph 1013.7mb 83f 81f
6:50pm 4.5ft 6s 5s 7 9 mph 1013.7mb 83f 81f
5:50pm 4ft 6s 5s 9 11 mph 1014.3mb 83f 80f
4:50pm 4.5ft 6s 5s 11 13 mph 1014.8mb 83f 79f
3:50pm 4.5ft 5s 5s 13 16 mph 1015.5mb 83f 78f
2:50pm 4ft 5s 5s 27 34 mph 1015.6mb 83f 76f
1:50pm 4.5ft 5s 5s 16 18 mph 1014.7mb 83f 83f
12:50pm 4ft 9s 5s 16 18 mph 1014.5mb 83f 83f
11:50am 4ft 5s 5s 16 20 mph 1013.8mb 83f 83f
10:50am 4ft 4s 5s 16 20 mph 1013.4mb 84f 83f
9:50am 4ft 8s 5s 18 20 mph 1012.9mb 84f 83f
8:50am 4ft 11s 5s 18 20 mph 1012.5mb 84f 83f
7:50am 3.5ft 9s 5s 18 20 mph 1012.3mb 84f 83f
6:50am 3.5ft 11s 5s 18 20 mph 1012.6mb 84f 83f
5:50am 4ft 10s 5s 16 18 mph 1013.2mb 84f 82f
4:50am 3.5ft 11s 5s 16 18 mph 1014.1mb 84f 83f
3:50am 4ft 10s 6s 16 18 mph 1014.7mb 84f 83f
2:50am 4ft 11s 6s 13 16 mph 1014.9mb 84f 83f
1:50am 4ft 11s 6s 11 18 mph 1014.7mb 84f 83f
12:50am 4ft 11s 7s 13 18 mph 1014.2mb 84f 82f
Wed 09/17 11:50pm 4ft 10s 7s 11 13 mph 1014.1mb 84f 83f
10:50pm 4ft 11s 6s 11 13 mph 1013.5mb 84f 82f
9:50pm 4.5ft 11s 7s 4 13 mph 1013.4mb 84f 81f
8:50pm 5ft 11s 7s 11 13 mph 1013.1mb 84f 83f
7:50pm 4.5ft 11s 7s 11 13 mph 1013.4mb 84f 82f
6:50pm 5ft 11s 7s 11 13 mph 1014.1mb 84f 82f
5:50pm 5ft 11s 8s 11 13 mph 1014.6mb 84f 83f
4:50pm 6ft 12s 8s 11 13 mph 1015.2mb 84f 82f
3:50pm 5.5ft 11s 8s 11 13 mph 1015.9mb 84f 82f
2:50pm 6ft 11s 9s 9 11 mph 1016mb 84f 82f
1:50pm 5ft 11s 8s 9 11 mph 1015.8mb 84f 82f
12:50pm 5.5ft 11s 8s 9 11 mph 1015.4mb 84f 82f
11:50am 7ft 12s 9s 7 9 mph 1015.2mb 84f 82f
10:50am 7ft 13s 10s 7 9 mph 1014.7mb 84f 81f
9:50am 6.5ft 12s 10s 7 9 mph 1014.4mb 84f 81f
8:50am 6ft 13s 10s 7 9 mph 1014.3mb 84f 81f
7:50am 6.5ft 14s 10s 7 11 mph 1014.6mb 84f 81f
6:50am 6ft 14s 10s 7 9 mph 1015.2mb 84f 81f
5:50am 6ft 13s 10s 4 7 mph 1015.7mb 84f 81f
4:50am 6.5ft 14s 10s 4 7 mph 1016.2mb 84f 81f
3:50am 6ft 15s 10s 2 4 mph 1016.3mb 84f 81f
2:50am 6ft 15s 10s 2 4 mph 1016.7mb 84f 81f
1:50am 6.5ft 14s 10s 4 7 mph 1016.6mb 84f 81f
12:50am 6ft 14s 10s 4
mph
1016.3mb 85f 82f
Tue 09/16 11:50pm 6ft 15s 10s 4 7 mph 1016.2mb 85f 82f
10:50pm 5.5ft 15s 9s 4 7 mph 1015.8mb 85f 82f
9:50pm 5ft 16s 9s 4 7 mph 1015.7mb 85f 83f
8:50pm 4.5ft 11s 8s 4 7 mph 1015.7mb 86f 82f
7:50pm 4.5ft 8s 8s 2 7 mph 1016mb 87f 82f
6:50pm 4.5ft 13s 8s 4
mph
1016.3mb 87f 82f
5:50pm 4ft 8s 8s 2 4 mph 1016.7mb 86f 82f
4:50pm 3.5ft 8s 7s 2 4 mph 1017.3mb 86f 81f
3:50pm 4ft 14s 8s 4
mph
1018mb 85f 81f
2:50pm 4ft 12s 7s 4 7 mph 1018.4mb 84f 81f
1:50pm 3.5ft 12s 7s 4 7 mph 1018.6mb 84f 81f
12:50pm 3.5ft 12s 7s 4 7 mph 1018.5mb 84f 81f
11:50am 3.5ft 7s 6s  -  2 mph 1018.6mb 83f 82f
10:50am 3ft 12s 6s 2
mph
1018.3mb 83f 81f
9:50am 3ft 7s 6s 2
mph
1018.1mb 83f 81f
8:50am 3ft 7s 6s  -  2 mph 1017.8mb 83f 81f
7:50am 3ft 6s 6s 2
mph
1018mb 84f 81f
6:50am 2.5ft 7s 6s 4 7 mph 1018.3mb 84f 82f
5:50am 2.5ft 6s 6s 4 7 mph 1018.7mb 83f 82f
4:50am 2.5ft 7s 6s 7 9 mph 1019.1mb 83f 82f
3:50am 2.5ft 13s 5s 9
mph
1019.2mb 83f 82f
2:50am 2.5ft 7s 6s 9
mph
1019.7mb 84f 82f
1:50am 2.5ft 6s 5s 7 9 mph 1019.9mb 84f 82f
12:50am 3ft 6s 6s 9 11 mph 1019.6mb 84f 82f
Mon 09/15 11:50pm 2.5ft 6s 5s 9 11 mph 1019.4mb 84f 82f
10:50pm 2.5ft 7s 6s 11 13 mph 1019mb 85f 82f